createdAt,value
2023-03-26T00:00:38.606Z,100434.53
2023-03-26T00:03:07.760Z,100424.06
2023-03-26T00:05:36.691Z,100420.25
2023-03-26T00:08:11.614Z,100429.06
2023-03-26T00:10:51.309Z,100418.16
2023-03-26T00:13:21.784Z,100415.75
2023-03-26T00:15:56.388Z,100417.66
2023-03-26T00:18:32.287Z,100412.75
2023-03-26T00:21:11.206Z,100411.31
2023-03-26T00:23:42.359Z,100415.78
2023-03-26T00:26:33.133Z,100425.84
2023-03-26T00:29:08.602Z,100398.03
2023-03-26T00:31:40.246Z,100409.03
2023-03-26T00:34:10.584Z,100421.06
2023-03-26T00:36:42.553Z,100407.31
2023-03-26T00:39:13.152Z,100431.38
2023-03-26T00:41:44.276Z,100429.69
2023-03-26T00:44:12.782Z,100424.47
2023-03-26T00:46:41.571Z,100423.56
2023-03-26T00:49:15.126Z,100421.78
2023-03-26T00:51:46.538Z,100437.38
2023-03-26T00:54:20.523Z,100437.47
2023-03-26T00:56:48.981Z,100433.19
2023-03-26T00:59:19.697Z,100444.28
2023-03-26T01:01:51.374Z,100439.97
2023-03-26T01:04:27.901Z,100447.00
2023-03-26T01:06:57.116Z,100448.88
2023-03-26T01:09:33.962Z,100450.81
2023-03-26T01:12:03.656Z,100465.84
2023-03-26T01:14:32.027Z,100441.44
2023-03-26T01:17:06.099Z,100449.09
2023-03-26T01:19:41.522Z,100449.09
2023-03-26T01:22:16.820Z,100443.91
2023-03-26T01:24:56.936Z,100448.22
2023-03-26T01:27:39.171Z,100447.38
2023-03-26T01:30:17.146Z,100454.50
2023-03-26T01:32:57.786Z,100435.19
2023-03-26T01:35:35.588Z,100457.84
2023-03-26T01:38:15.411Z,100454.44
2023-03-26T01:40:51.376Z,100456.25
2023-03-26T01:43:30.808Z,100448.53
2023-03-26T01:46:08.862Z,100418.47
2023-03-26T01:48:54.178Z,100442.41
2023-03-26T01:51:55.334Z,100448.59
2023-03-26T01:54:42.950Z,100447.88
2023-03-26T01:57:57.428Z,100440.84
2023-03-26T02:01:17.126Z,100441.84
2023-03-26T02:03:53.167Z,100440.94
2023-03-26T02:06:30.937Z,100433.16
2023-03-26T02:09:04.560Z,100426.28
2023-03-26T02:11:36.117Z,100423.22
2023-03-26T02:14:05.623Z,100422.50
2023-03-26T02:16:36.019Z,100418.41
2023-03-26T02:19:05.881Z,100422.66
2023-03-26T02:21:35.343Z,100407.22
2023-03-26T02:24:04.307Z,100409.03
2023-03-26T02:26:34.618Z,100402.13
2023-03-26T02:29:03.690Z,100403.00
2023-03-26T02:31:32.565Z,100398.59
2023-03-26T02:34:01.599Z,100386.38
2023-03-26T02:36:38.916Z,100389.91
2023-03-26T02:39:08.380Z,100376.28
2023-03-26T02:41:37.664Z,100388.34
2023-03-26T02:44:06.913Z,100381.38
2023-03-26T02:46:35.698Z,100375.25
2023-03-26T02:49:06.187Z,100370.94
2023-03-26T02:51:37.816Z,100372.66
2023-03-26T02:54:09.166Z,100353.50
2023-03-26T02:56:39.009Z,100347.53
2023-03-26T02:59:09.304Z,100337.09
2023-03-26T03:01:45.022Z,100338.16
2023-03-26T03:04:16.500Z,100351.22
2023-03-26T03:06:47.663Z,100362.03
2023-03-26T03:09:19.126Z,100345.88
2023-03-26T03:11:48.375Z,100340.94
2023-03-26T03:14:16.519Z,100335.63
2023-03-26T03:16:46.305Z,100331.75
2023-03-26T03:19:15.199Z,100338.06
2023-03-26T03:21:43.963Z,100322.53
2023-03-26T03:24:13.986Z,100321.19
2023-03-26T03:26:45.908Z,100326.03
2023-03-26T03:29:14.633Z,100317.47
2023-03-26T03:31:43.043Z,100319.56
2023-03-26T03:34:11.603Z,100299.34
2023-03-26T03:36:40.105Z,100287.72
2023-03-26T03:39:09.048Z,100269.41
2023-03-26T03:41:39.616Z,100267.69
2023-03-26T03:44:08.933Z,100265.25
2023-03-26T03:46:37.397Z,100240.13
2023-03-26T03:49:05.719Z,100235.22
2023-03-26T03:51:36.049Z,100245.56
2023-03-26T03:54:06.471Z,100263.31
2023-03-26T03:56:39.794Z,100258.84
2023-03-26T03:59:13.009Z,100265.06
2023-03-26T04:01:46.844Z,100262.31
2023-03-26T04:04:21.591Z,100259.41
2023-03-26T04:06:53.040Z,100263.34
2023-03-26T04:09:20.997Z,100270.69
2023-03-26T04:11:51.918Z,100264.38
2023-03-26T04:14:20.995Z,100268.75
2023-03-26T04:16:50.503Z,100270.63
2023-03-26T04:19:19.051Z,100249.03
2023-03-26T04:21:49.623Z,100273.34
2023-03-26T04:24:17.945Z,100266.47
2023-03-26T04:26:50.091Z,100276.25
2023-03-26T04:29:24.681Z,100267.69
2023-03-26T04:31:58.882Z,100263.69
2023-03-26T04:34:33.758Z,100264.59
2023-03-26T04:37:05.181Z,100272.63
2023-03-26T04:39:36.351Z,100253.59
2023-03-26T04:42:04.970Z,100277.22
2023-03-26T04:44:35.048Z,100254.56
2023-03-26T04:47:04.248Z,100265.84
2023-03-26T04:49:32.798Z,100272.69
2023-03-26T04:52:01.460Z,100267.63
2023-03-26T04:54:29.692Z,100265.47
2023-03-26T04:57:01.751Z,100249.78
2023-03-26T04:59:34.890Z,100253.44
2023-03-26T05:02:06.895Z,100255.03
2023-03-26T05:04:37.292Z,100261.41
2023-03-26T05:07:05.803Z,100276.06
2023-03-26T05:09:35.085Z,100286.63
2023-03-26T05:12:03.780Z,100289.06
2023-03-26T05:14:37.768Z,100274.06
2023-03-26T05:17:10.957Z,100267.41
2023-03-26T05:19:40.092Z,100261.56
2023-03-26T05:22:08.682Z,100266.72
2023-03-26T05:24:38.061Z,100262.22
2023-03-26T05:27:07.977Z,100269.34
2023-03-26T05:29:36.293Z,100257.06
2023-03-26T05:32:05.979Z,100273.53
2023-03-26T05:34:36.598Z,100272.28
2023-03-26T05:37:06.566Z,100265.63
2023-03-26T05:39:35.638Z,100281.75
2023-03-26T05:42:04.020Z,100287.88
2023-03-26T05:44:35.822Z,100264.53
2023-03-26T05:47:09.128Z,100285.22
2023-03-26T05:49:42.176Z,100269.19
2023-03-26T05:52:10.435Z,100265.63
2023-03-26T05:54:38.677Z,100264.56
2023-03-26T05:57:07.965Z,100274.75
2023-03-26T05:59:37.174Z,100256.84
2023-03-26T06:02:06.400Z,100290.44
2023-03-26T06:04:43.206Z,100266.22
2023-03-26T06:07:23.401Z,100302.16
2023-03-26T06:09:54.128Z,100312.03
2023-03-26T06:12:40.362Z,100317.84
2023-03-26T06:15:35.576Z,100321.38
2023-03-26T06:18:11.747Z,100313.38
2023-03-26T06:20:58.079Z,100322.75
2023-03-26T06:23:26.612Z,100318.66
2023-03-26T06:25:56.213Z,100332.53
2023-03-26T06:28:25.172Z,100322.88
2023-03-26T06:31:23.515Z,100326.13
2023-03-26T06:33:58.015Z,100326.03
2023-03-26T06:36:32.539Z,100296.56
2023-03-26T06:39:07.753Z,100313.63
2023-03-26T06:41:36.754Z,100328.28
2023-03-26T06:44:05.954Z,100326.13
2023-03-26T06:46:37.974Z,100333.28
2023-03-26T06:49:07.324Z,100335.38
2023-03-26T06:51:39.333Z,100337.72
2023-03-26T06:54:07.579Z,100323.72
2023-03-26T06:56:38.280Z,100334.22
2023-03-26T06:59:07.080Z,100347.53
2023-03-26T07:01:35.551Z,100340.66
2023-03-26T07:04:06.020Z,100332.50
2023-03-26T07:06:35.188Z,100329.09
2023-03-26T07:09:07.877Z,100335.09
2023-03-26T07:11:38.517Z,100319.19
2023-03-26T07:14:07.376Z,100360.97
2023-03-26T07:16:38.876Z,100381.81
2023-03-26T07:19:07.022Z,100438.03
2023-03-26T07:21:36.069Z,100456.59
2023-03-26T07:24:07.422Z,100482.28
2023-03-26T07:26:40.200Z,100494.88
2023-03-26T07:29:16.321Z,100491.13
2023-03-26T07:31:55.130Z,100488.34
2023-03-26T07:34:39.076Z,100489.81
2023-03-26T07:37:15.630Z,100510.66
2023-03-26T07:39:53.449Z,100490.84
2023-03-26T07:42:35.436Z,100525.78
2023-03-26T07:45:18.191Z,100507.81
2023-03-26T07:47:50.011Z,100508.44
2023-03-26T07:50:21.565Z,100554.53
2023-03-26T07:52:50.745Z,100555.47
2023-03-26T07:55:23.157Z,100561.44
2023-03-26T07:58:01.075Z,100562.03
2023-03-26T08:00:38.652Z,100553.47
2023-03-26T08:03:48.951Z,100548.22
2023-03-26T08:06:27.636Z,100534.53
2023-03-26T08:09:01.640Z,100566.72
2023-03-26T08:11:42.159Z,100581.50
2023-03-26T08:14:38.875Z,100591.69
2023-03-26T08:17:30.643Z,100599.22
2023-03-26T08:20:12.381Z,100665.47
2023-03-26T08:22:43.498Z,100687.31
2023-03-26T08:25:21.360Z,100709.13
2023-03-26T08:28:17.550Z,100734.38
2023-03-26T08:30:47.090Z,100795.81
2023-03-26T08:33:19.554Z,100792.91
2023-03-26T08:35:49.494Z,100787.66
2023-03-26T08:38:20.184Z,100756.75
2023-03-26T08:41:29.142Z,100746.34
2023-03-26T08:44:35.415Z,100719.75
2023-03-26T08:47:34.809Z,100760.41
2023-03-26T08:50:28.253Z,100757.31
2023-03-26T08:53:21.134Z,100751.56
2023-03-26T08:55:55.295Z,100767.13
2023-03-26T08:58:59.097Z,100777.34
2023-03-26T09:02:09.099Z,100787.44
2023-03-26T09:05:15.168Z,100769.44
2023-03-26T09:08:19.933Z,100797.16
2023-03-26T09:10:54.027Z,100790.56
2023-03-26T09:13:52.083Z,100801.47
2023-03-26T09:16:58.502Z,100784.63
2023-03-26T09:19:57.809Z,100792.88
2023-03-26T09:23:00.974Z,100802.22
2023-03-26T09:25:54.469Z,100795.13
2023-03-26T09:29:05.148Z,100809.03
2023-03-26T09:32:03.228Z,100748.03
2023-03-26T09:34:33.160Z,100352.53
2023-03-26T09:37:15.451Z,99842.72
2023-03-26T09:39:53.392Z,99379.16
2023-03-26T09:42:32.220Z,99082.91
2023-03-26T09:45:25.552Z,98691.03
2023-03-26T09:48:24.021Z,97602.09
2023-03-26T09:51:10.945Z,97299.34
2023-03-26T09:54:06.275Z,97482.94
2023-03-26T09:56:46.726Z,97274.97
2023-03-26T09:59:41.472Z,97197.28
2023-03-26T10:02:45.925Z,97121.56
2023-03-26T10:05:32.179Z,97158.88
2023-03-26T10:08:18.605Z,97143.03
2023-03-26T10:10:54.019Z,97111.63
2023-03-26T10:13:31.720Z,97121.56
2023-03-26T10:16:17.621Z,96988.38
2023-03-26T10:18:57.096Z,96943.19
2023-03-26T10:21:36.267Z,96959.03
2023-03-26T10:24:20.116Z,96992.00
2023-03-26T10:27:09.330Z,96906.16
2023-03-26T10:30:31.561Z,96874.94
2023-03-26T10:33:13.181Z,96792.91
2023-03-26T10:36:23.836Z,96705.59
2023-03-26T10:39:37.681Z,96768.31
2023-03-26T10:42:37.117Z,96693.25
2023-03-26T10:45:28.545Z,96661.66
2023-03-26T10:48:27.330Z,96674.66
2023-03-26T10:51:23.142Z,96666.97
2023-03-26T10:53:57.051Z,96668.84
2023-03-26T10:56:29.579Z,96646.59
2023-03-26T10:58:58.411Z,96627.25
2023-03-26T11:01:41.591Z,96619.84
2023-03-26T11:04:22.190Z,96518.41
2023-03-26T11:07:00.812Z,96718.47
2023-03-26T11:09:39.913Z,96896.72
2023-03-26T11:12:26.482Z,96937.94
2023-03-26T11:15:09.814Z,96935.28
2023-03-26T11:17:50.373Z,96993.19
2023-03-26T11:20:34.401Z,97030.06
2023-03-26T11:23:19.846Z,96958.22
2023-03-26T11:26:07.682Z,96883.25
2023-03-26T11:29:04.743Z,96894.69
2023-03-26T11:31:55.771Z,96857.28
2023-03-26T11:34:29.722Z,96820.03
2023-03-26T11:37:02.787Z,96856.31
2023-03-26T11:39:38.844Z,96756.38
2023-03-26T11:42:10.889Z,96768.00
2023-03-26T11:44:43.891Z,96789.00
2023-03-26T11:47:15.616Z,96702.47
2023-03-26T11:49:45.643Z,96696.78
2023-03-26T11:52:15.871Z,96713.91
2023-03-26T11:54:50.108Z,96660.53
2023-03-26T11:57:27.680Z,96738.56
2023-03-26T12:00:06.675Z,96603.59
2023-03-26T12:02:40.989Z,96608.06
2023-03-26T12:05:19.472Z,96610.19
2023-03-26T12:07:53.957Z,96593.22
2023-03-26T12:10:28.713Z,96602.94
2023-03-26T12:13:00.123Z,96573.34
2023-03-26T12:15:32.053Z,96627.16
2023-03-26T12:18:21.737Z,96467.91
2023-03-26T12:21:03.105Z,96590.53
2023-03-26T12:24:01.423Z,96497.47
2023-03-26T12:26:41.810Z,96529.75
2023-03-26T12:29:14.212Z,96490.38
2023-03-26T12:31:48.367Z,96559.47
2023-03-26T12:34:19.513Z,96538.22
2023-03-26T12:36:54.186Z,96513.38
2023-03-26T12:40:07.066Z,96458.25
2023-03-26T12:44:50.582Z,96487.72
2023-03-26T12:45:22.339Z,96402.91
2023-03-26T12:48:01.727Z,96424.63
2023-03-26T12:50:47.805Z,96406.50
2023-03-26T12:53:29.870Z,96426.13
2023-03-26T12:56:04.005Z,96479.19
2023-03-26T12:58:56.517Z,96377.69
2023-03-26T13:01:33.180Z,96386.75
2023-03-26T13:04:14.625Z,96693.91
2023-03-26T13:07:00.140Z,96508.41
2023-03-26T13:09:47.541Z,96553.69
2023-03-26T13:12:34.377Z,96411.19
2023-03-26T13:15:18.926Z,96402.78
2023-03-26T13:17:58.517Z,96421.53
2023-03-26T13:20:33.312Z,96485.69
2023-03-26T13:23:10.497Z,96457.00
2023-03-26T13:25:46.943Z,96419.91
2023-03-26T13:28:27.256Z,96285.91
2023-03-26T13:31:05.240Z,96282.91
2023-03-26T13:33:57.826Z,96330.19
2023-03-26T13:36:34.804Z,96243.72
2023-03-26T13:39:18.873Z,96316.31
2023-03-26T13:42:00.998Z,96310.38
2023-03-26T13:44:39.980Z,96338.97
2023-03-26T13:47:13.162Z,96387.59
2023-03-26T13:49:44.696Z,96302.63
2023-03-26T13:52:19.013Z,96277.97
2023-03-26T13:54:52.690Z,96339.34
2023-03-26T13:57:25.575Z,96313.25
2023-03-26T14:00:00.089Z,96153.91
2023-03-26T14:02:35.218Z,96182.03
2023-03-26T14:05:10.205Z,96192.41
2023-03-26T14:07:45.455Z,96342.75
2023-03-26T14:10:18.822Z,96345.84
2023-03-26T14:12:55.571Z,96259.66
2023-03-26T14:15:31.564Z,96261.84
2023-03-26T14:18:08.135Z,96327.19
2023-03-26T14:21:11.723Z,96353.16
2023-03-26T14:24:25.728Z,96381.56
2023-03-26T14:27:25.779Z,96275.06
2023-03-26T14:30:06.139Z,96197.44
2023-03-26T14:32:51.354Z,96148.97
2023-03-26T14:35:35.616Z,96191.84
2023-03-26T14:38:34.235Z,96267.97
2023-03-26T14:41:19.335Z,96322.81
2023-03-26T14:44:28.168Z,96280.09
2023-03-26T14:47:16.699Z,96295.81
2023-03-26T14:50:23.358Z,96181.97
2023-03-26T14:53:01.505Z,96208.38
2023-03-26T14:55:58.036Z,96257.22
2023-03-26T14:59:03.204Z,96196.06
2023-03-26T15:02:02.602Z,96181.03
2023-03-26T15:05:00.985Z,96156.00
2023-03-26T15:08:09.449Z,96352.88
2023-03-26T15:11:01.430Z,96220.28
2023-03-26T15:13:50.977Z,96062.28
2023-03-26T15:16:51.489Z,96133.81
2023-03-26T15:19:49.070Z,96148.47
2023-03-26T15:22:57.021Z,96232.44
2023-03-26T15:25:49.989Z,96218.59
2023-03-26T15:28:49.986Z,96280.28
2023-03-26T15:32:05.536Z,96130.81
2023-03-26T15:34:59.804Z,96026.94
2023-03-26T15:37:58.688Z,95941.09
2023-03-26T15:40:49.120Z,96049.03
2023-03-26T15:43:20.222Z,96101.13
2023-03-26T15:45:54.988Z,96127.19
2023-03-26T15:48:56.368Z,96119.94
2023-03-26T15:51:46.805Z,96146.72
2023-03-26T15:54:24.725Z,96213.53
2023-03-26T15:57:26.875Z,96193.91
2023-03-26T16:00:15.487Z,96261.75
2023-03-26T16:02:53.996Z,96159.38
2023-03-26T16:05:34.403Z,96240.91
2023-03-26T16:08:11.512Z,96305.63
2023-03-26T16:10:46.792Z,96314.41
2023-03-26T16:13:38.917Z,96322.03
2023-03-26T16:16:24.051Z,96326.50
2023-03-26T16:18:58.585Z,96326.75
2023-03-26T16:21:55.734Z,96374.44
2023-03-26T16:24:30.727Z,96959.88
2023-03-26T16:27:31.909Z,97457.41
2023-03-26T16:30:30.607Z,97455.50
2023-03-26T16:33:12.566Z,97452.03
2023-03-26T16:36:07.300Z,97402.28
2023-03-26T16:38:55.947Z,97433.13
2023-03-26T16:41:27.608Z,97440.41
2023-03-26T16:44:14.824Z,97440.38
2023-03-26T16:46:57.534Z,97434.16
2023-03-26T16:49:37.902Z,97428.91
2023-03-26T16:52:23.282Z,97434.28
2023-03-26T16:54:55.140Z,97525.34
2023-03-26T16:57:28.886Z,97580.13
2023-03-26T17:00:24.382Z,97674.63
2023-03-26T17:03:08.128Z,98432.91
2023-03-26T17:05:41.214Z,98575.81
2023-03-26T17:08:19.233Z,98743.31
2023-03-26T17:11:18.597Z,98747.16
2023-03-26T17:14:01.953Z,98704.84
2023-03-26T17:16:36.079Z,98695.97
2023-03-26T17:19:20.696Z,98712.88
2023-03-26T17:21:56.771Z,98692.47
2023-03-26T17:24:35.680Z,98728.84
2023-03-26T17:27:17.788Z,98704.84
2023-03-26T17:30:24.995Z,98712.41
2023-03-26T17:32:56.882Z,98702.31
2023-03-26T17:35:44.003Z,98703.56
2023-03-26T17:38:46.471Z,98693.28
2023-03-26T17:41:17.850Z,98694.47
2023-03-26T17:43:47.711Z,98672.41
2023-03-26T17:46:30.449Z,98677.50
2023-03-26T17:49:06.179Z,98660.28
2023-03-26T17:51:48.785Z,98654.44
2023-03-26T17:54:24.084Z,98646.09
2023-03-26T17:56:54.706Z,98640.00
2023-03-26T17:59:30.119Z,98616.69
2023-03-26T18:02:01.264Z,98610.84
2023-03-26T18:04:37.004Z,98586.94
2023-03-26T18:07:37.651Z,98611.88
2023-03-26T18:10:33.346Z,98583.53
2023-03-26T18:13:19.051Z,98604.38
2023-03-26T18:16:06.400Z,98598.38
2023-03-26T18:18:42.333Z,98628.31
2023-03-26T18:21:20.755Z,98694.31
2023-03-26T18:23:52.986Z,99328.88
2023-03-26T18:26:25.124Z,99491.63
2023-03-26T18:28:55.695Z,99542.50
2023-03-26T18:31:26.950Z,99548.03
2023-03-26T18:33:59.340Z,99532.59
2023-03-26T18:36:29.371Z,99567.28
2023-03-26T18:39:07.953Z,99645.81
2023-03-26T18:41:39.435Z,99561.06
2023-03-26T18:44:19.676Z,99584.34
2023-03-26T18:46:48.890Z,99570.97
2023-03-26T18:49:18.904Z,99705.25
2023-03-26T18:51:57.600Z,99691.69
2023-03-26T18:54:35.196Z,99680.34
2023-03-26T18:57:15.555Z,99679.59
2023-03-26T19:00:16.165Z,99721.47
2023-03-26T19:02:48.072Z,99725.59
2023-03-26T19:05:20.223Z,99735.19
2023-03-26T19:08:06.688Z,99737.03
2023-03-26T19:10:42.322Z,99747.63
2023-03-26T19:13:15.550Z,99754.88
2023-03-26T19:15:48.960Z,99762.13
2023-03-26T19:18:28.515Z,99838.09
2023-03-26T19:21:05.721Z,99873.34
2023-03-26T19:23:38.468Z,99903.63
2023-03-26T19:26:11.970Z,99902.56
2023-03-26T19:28:43.290Z,99997.84
2023-03-26T19:31:23.627Z,100198.13
2023-03-26T19:33:57.839Z,100346.59
2023-03-26T19:36:30.761Z,100492.41
2023-03-26T19:39:11.763Z,100568.28
2023-03-26T19:41:43.928Z,100631.03
2023-03-26T19:44:26.233Z,100639.56
2023-03-26T19:47:03.908Z,100602.44
2023-03-26T19:49:44.409Z,100652.28
2023-03-26T19:52:16.252Z,100712.81
2023-03-26T19:55:01.942Z,100844.44
2023-03-26T19:57:34.859Z,100874.13
2023-03-26T20:00:41.637Z,100885.53
2023-03-26T20:03:17.036Z,100863.94
2023-03-26T20:05:45.325Z,100875.34
2023-03-26T20:08:18.782Z,100838.72
2023-03-26T20:10:49.376Z,100829.28
2023-03-26T20:13:25.133Z,100931.25
2023-03-26T20:16:05.620Z,100893.00
2023-03-26T20:18:35.356Z,100943.56
2023-03-26T20:21:03.720Z,100930.53
2023-03-26T20:23:31.861Z,100883.59
2023-03-26T20:26:00.171Z,100900.94
2023-03-26T20:30:58.778Z,100876.59
2023-03-26T20:33:35.217Z,100882.66
2023-03-26T20:36:03.877Z,100896.63
2023-03-26T20:38:39.195Z,100895.75
2023-03-26T20:41:10.774Z,100898.34
2023-03-26T20:43:40.284Z,100910.47
2023-03-26T20:46:08.737Z,100916.56
2023-03-26T20:48:37.950Z,100917.44
2023-03-26T20:51:06.393Z,100920.03
2023-03-26T20:53:34.967Z,100931.34
2023-03-26T20:56:03.615Z,100954.06
2023-03-26T20:58:32.596Z,100927.09
2023-03-26T21:01:03.249Z,100946.28
2023-03-26T21:03:37.700Z,100934.91
2023-03-26T21:06:10.846Z,100934.97
2023-03-26T21:08:42.783Z,100919.28
2023-03-26T21:11:27.470Z,100896.75
2023-03-26T21:14:04.020Z,100959.38
2023-03-26T21:16:37.038Z,100927.19
2023-03-26T21:19:06.340Z,100943.78
2023-03-26T21:22:09.190Z,100931.59
2023-03-26T21:24:59.594Z,100890.66
2023-03-26T21:27:39.475Z,100882.88
2023-03-26T21:30:14.627Z,100901.97
2023-03-26T21:32:46.498Z,100867.19
2023-03-26T21:35:21.843Z,100867.16
2023-03-26T21:37:52.874Z,100921.13
2023-03-26T21:40:22.457Z,100891.59
2023-03-26T21:42:54.907Z,100920.31
2023-03-26T21:45:29.997Z,100913.34
2023-03-26T21:48:03.882Z,100893.34
2023-03-26T21:50:41.730Z,100921.22
2023-03-26T21:53:44.516Z,100911.56
2023-03-26T21:59:35.470Z,100935.09
2023-03-26T22:02:15.360Z,100950.78
2023-03-26T22:05:06.277Z,100946.44
2023-03-26T22:07:56.696Z,100961.22
2023-03-26T22:10:52.754Z,100980.34
2023-03-26T22:13:28.476Z,100973.38
2023-03-26T22:15:58.740Z,100983.81
2023-03-26T22:18:30.626Z,100976.84
2023-03-26T22:21:01.453Z,100977.69
2023-03-26T22:23:36.379Z,100955.94
2023-03-26T22:26:05.218Z,100959.44
2023-03-26T22:28:38.372Z,100943.75
2023-03-26T22:31:09.172Z,100922.88
2023-03-26T22:33:45.106Z,100975.03
2023-03-26T22:36:31.322Z,100927.97
2023-03-26T22:39:01.962Z,100940.25
2023-03-26T22:41:30.958Z,100956.84
2023-03-26T22:44:09.383Z,100959.44
2023-03-26T22:46:51.801Z,100952.47
2023-03-26T22:49:26.219Z,100970.81
2023-03-26T22:51:56.832Z,100977.75
2023-03-26T22:54:25.025Z,100996.94
2023-03-26T22:56:55.650Z,101027.41
2023-03-26T22:59:25.727Z,101024.78
2023-03-26T23:02:00.960Z,101060.47
2023-03-26T23:04:34.384Z,101083.16
2023-03-26T23:07:11.349Z,101078.72
2023-03-26T23:10:03.235Z,101113.56
2023-03-26T23:12:32.283Z,101110.09
2023-03-26T23:15:28.788Z,101089.16
2023-03-26T23:17:59.481Z,101086.44
2023-03-26T23:20:39.293Z,101075.09
2023-03-26T23:24:12.046Z,101043.84
2023-03-26T23:26:51.304Z,101021.25
2023-03-26T23:29:21.222Z,101011.69
2023-03-26T23:31:56.710Z,101009.06
2023-03-26T23:34:26.007Z,101011.66
2023-03-26T23:37:01.700Z,101011.59
2023-03-26T23:39:33.963Z,101012.47
2023-03-26T23:42:03.843Z,101016.72
2023-03-26T23:44:33.034Z,101057.63
2023-03-26T23:47:02.444Z,101068.09
2023-03-26T23:49:34.195Z,101052.50
2023-03-26T23:52:03.124Z,101089.88
2023-03-26T23:54:31.406Z,101091.69
2023-03-26T23:57:05.190Z,101090.75
2023-03-26T23:59:35.953Z,101097.69
